Impacts TAF Board
For situational awareness. Not to be used for flight planning purposes.
IDs:

KLRD - Laredo Intl Apt, TX, US

Issued at 1720 UTC 02 Oct 2022
Updated at 1818 UTC 02 Oct 2022
Potential Impact None Slight Moderate High
Time1756Z 02/19Z 02/20Z 02/21Z 02/22Z 02/23Z 03/00Z 03/01Z 03/02Z 03/03Z 03/04Z 03/05Z 03/06Z 03/07Z>>
Type OBS PRVL PRVL PRVL PRVL PRVL PRVL PRVL PRVL PRVL PRVL PRVL PRVL PRVL
VIS 10 >6 >6 >6 >6 >6 >6 >6 >6 >6 >6 >6 >6 >6
CIG -- 250 250 250 250 250 250 250 250 250 250 250 250 250
Cover FEW BKN BKN BKN BKN BKN BKN BKN BKN BKN BKN BKN BKN BKN
FltCat VFR VFR VFR VFR VFR VFR VFR VFR VFR VFR VFR VFR VFR VFR
WX -- -- -- -- -- -- -- -- -- -- -- -- -- --
WDir 40 70 70 70 70 120 120 120 120 120 120 120 120 120
WSpd 8 6 6 6 6 6 6 6 6 6 6 6 6 6
WGst -- -- -- -- -- -- -- -- -- -- -- -- -- --
WSHgt -- -- -- -- -- -- -- -- -- -- -- -- -- --
WSDir -- -- -- -- -- -- -- -- -- -- -- -- -- --
WSSpd -- -- -- -- -- -- -- -- -- -- -- -- -- --
R14/32
XWnd 8 6 6 6 6 3 3 3 3 3 3 3 3 3
HWnd -2 1 1 1 1 5 5 5 5 5 5 5 5 5
R18/36
XWnd 5 6 6 6 6 5 5 5 5 5 5 5 5 5
HWnd -6 -2 -2 -2 -2 3 3 3 3 3 3 3 3 3
Raw TAF
KLRD 021720Z 0218/0318 07006KT P6SM BKN250
  FM022300 12006KT P6SM SCT100 BKN250


Raw METAR
KLRD 021756Z 04008KT 10SM FEW045 27/17 A3012 RMK AO2 SLP195 T02720167 10272 20194 58007
KLRD 021656Z 02004KT 10SM CLR 26/17 A3014 RMK AO2 SLP202 T02610167
KLRD 021556Z 04005KT 10SM CLR 24/16 A3014 RMK AO2 SLP204 T02390161

METAR Board
Radar Display
Forecast Discussion
For situational awareness. Not to be used for flight planning purposes.